Conesville, Iowa
Current Conditions -  °F | °C
As of 11:55 PM on Thursday 27 Nov 2014 (Local Time) from KMUT Reporting Station
Light Snow Light Snow  
Wind Chill: -11°   Ceiling: 4100
Heat Index: -11°   Visibility: 10mi
Dew Point: -14°   Wind: 3mph
Humidity: 79%   Direction: 140°SE
Pressure: 30.4"   Gusts: NA
Location:  41.38°N, 91.35°W
Report Text: KMUT 280555Z AUTO 14003KT 10SM -SN SCT032 BKN041 OVC060 M11/M14 A3040 RMK AO2
Loading
Personal Weather Stations






























Interactive Weather Map New forecast layout! Learn more

10-Day Weather Forecast

Advertisements
Track Severe Weather on mobile